Huvudsida
METAR-TAF:

METAR-TAF

Flygplatser :

Utti Airport

Uttis, Finland

latitud: 60-54N, longitud: 026-56E, höjd: 100 m

Aktuellt väderrapport

Denna rapport gjordes för 34 minuter sedan, klockan 14:20 UTC
Vind 9 kt från väst, varierande mellan väst/sydväst och nord/nordväst
Temperatur 20°C
Fuktighet 30%
Tryck 1026 hPa
Sikt 10 km eller mer
Inga moln under 1 500 m eller inga cumulonimbus

METAR: EFUT 231420Z AUTO 28009KT 250V330 CAVOK 20/02 Q1026

Tid: 17:54 (14:54 UTC)

Väderprognos

Denna rapport gjordes för 29 minuter sedan, klockan 14:25 UTC
Prognos gäller från 23 kl. 15 UTC till 23 kl. 24 UTC
Vind 8 kt från väst
Sikt 10 km eller mer
Inga moln under 1 500 m eller inga cumulonimbus

TAF: EFUT 231425Z 2315/2324 28008KT CAVOK

Aktuella väderrapporter och prognoser från 4000 flygplatser (METAR- och TAF-rapporter).

De tillgängliga stationerna syns som gula och röda prickar på kartan.

För musen över prickarna för att se namnen på stationerna.

Klicka sedan för att få väderrapporter och prognoser.

För att ändra kartan: Klicka på de gröna knapparna med ett svart kors på för att zooma in; den gröna knappen med ett streck på för att zooma ut; eller på de gröna pilarna för angränsande kartor.


METAR-TAF: